Apple Valley, California
Current Conditions -  °F | °C
As of 4:15 AM on Friday 28 Nov 2014 (Local Time) from KVCV Reporting Station
Clear Clear  
Wind Chill: 33°   Ceiling: Unl
Heat Index: 37°   Visibility: 10mi
Dew Point: 10°   Wind: 6mph
Humidity: 33%   Direction: 170°S
Pressure: 30.09"   Gusts: NA
Location:  34.52°N, 117.21°W
Report Text: KVCV 281215Z AUTO 17005KT 10SM CLR 03/M12 A3009 RMK AO2
Loading
Personal Weather Stations






























Interactive Weather Map New forecast layout! Learn more

10-Day Weather Forecast

Advertisements
Track Severe Weather on mobile